SIA23 KJFK-WSSS
Flight info
| Callsign | SIA23 |
|---|---|
| Flight time | N/A |
| Altitude | 33000 |
| Route | HAPIE DCT YAHOO DCT KANNI N343B JOOPY/M085F330 DCT 49N050W 51N040W 52N030W 52N020W DCT DINIM DCT ELSOX/N0490F330 DCT LEDGO/N0488F350 DCT OXLOW/N0488F370 DCT KONAN DCT KOK DCT REMBA DCT SPI DCT VIBOM DCT NOMBO DCT RIDAR DCT GOMIG DCT VATET DCT MOPUG DCT ASNEL DCT UDROS UM859 BAMUP/N0483F390 UM859 KARDE UL851 TBN UR317 REBLO M11 LUSAL N199 BAKUV N701 LARGI B701 TUGTA A909 LEMOD N644 PATOX/N0484F410 N644 DOBAT/N0487F390 N644 DI/N0485F410 A466 DPN L759 PUT W14 HTY A334 PASVA Y514 NUFFA DCT PIBAP DCT PASPU DCT NYLON |
| Aircraft | A359/H-SDE2E3GHIJ3J4J5LM1ORWXY/LB1D1 |
Departure
| Time | 2026-05-09 15:10 |
|---|---|
| Airport | John F. Kennedy International Airport (KJFK) |
Arrival
| Time | N/A |
|---|---|
| Airport | Singapore Changi Airport (WSSS) |
| Time | Latitude | Longitude | Altitude | Speed | Heading |
|---|---|---|---|---|---|
| 2026-05-09 14:43 | 40.64216 | -73.77871 | 29 ft | 0 kts | 26° |
| 2026-05-09 14:55 | 40.64205 | -73.77878 | 26 ft | 3 kts | 28° |
| 2026-05-09 14:55 | 40.64187 | -73.77891 | 26 ft | 3 kts | 34° |
| 2026-05-09 14:56 | 40.64171 | -73.77907 | 28 ft | 3 kts | 44° |
| 2026-05-09 14:56 | 40.64159 | -73.77927 | 26 ft | 3 kts | 65° |
| 2026-05-09 14:56 | 40.64154 | -73.77947 | 29 ft | 3 kts | 116° |
| 2026-05-09 14:56 | 40.64158 | -73.77955 | 26 ft | 0 kts | 151° |
| 2026-05-09 14:59 | 40.64153 | -73.77952 | 28 ft | 2 kts | 151° |
| 2026-05-09 15:00 | 40.64107 | -73.77919 | 29 ft | 10 kts | 151° |
| 2026-05-09 15:00 | 40.64046 | -73.77910 | 29 ft | 8 kts | 216° |
| 2026-05-09 15:00 | 40.64000 | -73.77946 | 29 ft | 7 kts | 188° |
| 2026-05-09 15:00 | 40.63948 | -73.77943 | 29 ft | 8 kts | 174° |
| 2026-05-09 15:01 | 40.63840 | -73.77926 | 29 ft | 8 kts | 173° |
| 2026-05-09 15:01 | 40.63783 | -73.77917 | 29 ft | 9 kts | 173° |
| 2026-05-09 15:01 | 40.63709 | -73.77905 | 29 ft | 11 kts | 173° |
| 2026-05-09 15:02 | 40.63632 | -73.77892 | 29 ft | 11 kts | 173° |
| 2026-05-09 15:02 | 40.63568 | -73.77850 | 29 ft | 11 kts | 129° |
| 2026-05-09 15:02 | 40.63528 | -73.77766 | 28 ft | 8 kts | 121° |
| 2026-05-09 15:02 | 40.63522 | -73.77705 | 27 ft | 7 kts | 65° |
| 2026-05-09 15:03 | 40.63572 | -73.77657 | 26 ft | 10 kts | 31° |
| 2026-05-09 15:03 | 40.63636 | -73.77607 | 26 ft | 11 kts | 31° |
| 2026-05-09 15:03 | 40.63703 | -73.77554 | 26 ft | 12 kts | 31° |
| 2026-05-09 15:03 | 40.63782 | -73.77492 | 29 ft | 15 kts | 31° |
| 2026-05-09 15:04 | 40.63891 | -73.77407 | 27 ft | 20 kts | 31° |
| 2026-05-09 15:04 | 40.64030 | -73.77298 | 28 ft | 26 kts | 31° |
| 2026-05-09 15:06 | 40.64646 | -73.76880 | 27 ft | 3 kts | 31° |
| 2026-05-09 15:06 | 40.64671 | -73.76861 | 26 ft | 7 kts | 31° |
| 2026-05-09 15:06 | 40.64741 | -73.76805 | 27 ft | 14 kts | 31° |
| 2026-05-09 15:06 | 40.64832 | -73.76735 | 27 ft | 16 kts | 30° |
| 2026-05-09 15:07 | 40.64926 | -73.76661 | 27 ft | 16 kts | 30° |
| 2026-05-09 15:07 | 40.65029 | -73.76581 | 26 ft | 20 kts | 31° |
| 2026-05-09 15:07 | 40.65098 | -73.76466 | 28 ft | 15 kts | 108° |
| 2026-05-09 15:07 | 40.65037 | -73.76367 | 29 ft | 13 kts | 156° |
| 2026-05-09 15:08 | 40.64962 | -73.76402 | 28 ft | 8 kts | 211° |
| 2026-05-09 15:08 | 40.64958 | -73.76405 | 28 ft | 0 kts | 210° |
| 2026-05-09 15:09 | 40.64937 | -73.76422 | 28 ft | 15 kts | 211° |
| 2026-05-09 15:10 | 40.58428 | -73.81590 | 1817 ft | 223 kts | 210° |
| 2026-05-09 15:11 | 40.56911 | -73.82247 | 1977 ft | 240 kts | 182° |
| 2026-05-09 15:11 | 40.55223 | -73.81780 | 2231 ft | 252 kts | 152° |
| 2026-05-09 15:11 | 40.53928 | -73.80271 | 2687 ft | 256 kts | 124° |
| 2026-05-09 15:11 | 40.53287 | -73.78091 | 3186 ft | 258 kts | 102° |
| 2026-05-09 15:12 | 40.52894 | -73.75763 | 3696 ft | 261 kts | 104° |
| 2026-05-09 15:12 | 40.52432 | -73.73450 | 4174 ft | 263 kts | 105° |
| 2026-05-09 15:12 | 40.51949 | -73.71123 | 4662 ft | 265 kts | 105° |
| 2026-05-09 15:12 | 40.51473 | -73.68767 | 5155 ft | 267 kts | 105° |
| 2026-05-09 15:13 | 40.51012 | -73.66390 | 5650 ft | 269 kts | 104° |
| 2026-05-09 15:13 | 40.50565 | -73.63991 | 6168 ft | 271 kts | 104° |
| 2026-05-09 15:13 | 40.50132 | -73.61604 | 6675 ft | 273 kts | 104° |
| 2026-05-09 15:13 | 40.49691 | -73.59130 | 7197 ft | 275 kts | 104° |
| 2026-05-09 15:14 | 40.49258 | -73.56697 | 7722 ft | 277 kts | 103° |
| 2026-05-09 15:14 | 40.48818 | -73.54219 | 8244 ft | 280 kts | 104° |
| 2026-05-09 15:14 | 40.48373 | -73.51720 | 8774 ft | 282 kts | 104° |
| 2026-05-09 15:14 | 40.47923 | -73.49203 | 9293 ft | 284 kts | 104° |
| 2026-05-09 15:15 | 40.47468 | -73.46667 | 9817 ft | 286 kts | 104° |
| 2026-05-09 15:15 | 40.47164 | -73.44979 | 10136 ft | 288 kts | 104° |
| 2026-05-09 15:15 | 40.46528 | -73.41449 | 10471 ft | 306 kts | 104° |
| 2026-05-09 15:15 | 40.46026 | -73.38671 | 10662 ft | 320 kts | 104° |
| 2026-05-09 15:16 | 40.45501 | -73.35772 | 10889 ft | 334 kts | 104° |
| 2026-05-09 15:16 | 40.44953 | -73.32744 | 11101 ft | 347 kts | 104° |
| 2026-05-09 15:16 | 40.44385 | -73.29611 | 11307 ft | 360 kts | 104° |
| 2026-05-09 15:16 | 40.43794 | -73.26357 | 11513 ft | 372 kts | 104° |
| 2026-05-09 15:17 | 40.43185 | -73.23008 | 11710 ft | 382 kts | 104° |
| 2026-05-09 15:17 | 40.42570 | -73.19632 | 12081 ft | 388 kts | 104° |
| 2026-05-09 15:17 | 40.41932 | -73.16136 | 12536 ft | 391 kts | 104° |
| 2026-05-09 15:17 | 40.41303 | -73.12697 | 12979 ft | 394 kts | 104° |
| 2026-05-09 15:18 | 40.40659 | -73.09183 | 13424 ft | 396 kts | 104° |
| 2026-05-09 15:18 | 40.40012 | -73.05658 | 13883 ft | 399 kts | 104° |
| 2026-05-09 15:18 | 40.39459 | -73.02079 | 14322 ft | 402 kts | 98° |
| 2026-05-09 15:18 | 40.39278 | -72.98408 | 14754 ft | 405 kts | 89° |
| 2026-05-09 15:19 | 40.39549 | -72.94723 | 15188 ft | 408 kts | 81° |
| 2026-05-09 15:19 | 40.39907 | -72.92303 | 15474 ft | 410 kts | 77° |
| 2026-05-09 15:19 | 40.40623 | -72.88670 | 15890 ft | 412 kts | 74° |
| 2026-05-09 15:19 | 40.41454 | -72.85054 | 16303 ft | 415 kts | 73° |
| 2026-05-09 15:20 | 40.42329 | -72.81436 | 16707 ft | 417 kts | 72° |
| 2026-05-09 15:20 | 40.44084 | -72.74106 | 17498 ft | 422 kts | 73° |
| 2026-05-09 15:20 | 40.44943 | -72.70403 | 17894 ft | 425 kts | 73° |
| 2026-05-09 15:21 | 40.45791 | -72.66675 | 18272 ft | 427 kts | 74° |
| 2026-05-09 15:21 | 40.46635 | -72.62918 | 18663 ft | 430 kts | 74° |
| 2026-05-09 15:21 | 40.47479 | -72.59133 | 19038 ft | 432 kts | 74° |
| 2026-05-09 15:21 | 40.48323 | -72.55336 | 19423 ft | 434 kts | 74° |
| 2026-05-09 15:22 | 40.49157 | -72.51582 | 19796 ft | 437 kts | 74° |
| 2026-05-09 15:22 | 40.50009 | -72.47738 | 20179 ft | 439 kts | 74° |
| 2026-05-09 15:22 | 40.50865 | -72.43875 | 20571 ft | 442 kts | 74° |
| 2026-05-09 15:22 | 40.51715 | -72.40036 | 20944 ft | 444 kts | 74° |
| 2026-05-09 15:23 | 40.52580 | -72.36126 | 21316 ft | 447 kts | 74° |
| 2026-05-09 15:23 | 40.53449 | -72.32187 | 21680 ft | 449 kts | 74° |
| 2026-05-09 15:23 | 40.54323 | -72.28221 | 22052 ft | 452 kts | 74° |
| 2026-05-09 15:23 | 40.55197 | -72.24246 | 22416 ft | 454 kts | 74° |
| 2026-05-09 15:24 | 40.56076 | -72.20244 | 22773 ft | 456 kts | 74° |
| 2026-05-09 15:24 | 40.56956 | -72.16226 | 23124 ft | 459 kts | 74° |
| 2026-05-09 15:24 | 40.57840 | -72.12183 | 23474 ft | 461 kts | 74° |
| 2026-05-09 15:24 | 40.58728 | -72.08118 | 23798 ft | 463 kts | 74° |
| 2026-05-09 15:25 | 40.59618 | -72.04032 | 24135 ft | 466 kts | 74° |
| 2026-05-09 15:25 | 40.60511 | -71.99924 | 24464 ft | 468 kts | 74° |
| 2026-05-09 15:25 | 40.61409 | -71.95791 | 24791 ft | 470 kts | 74° |
| 2026-05-09 15:26 | 40.63210 | -71.87466 | 25405 ft | 475 kts | 74° |
| 2026-05-09 15:26 | 40.64114 | -71.83278 | 25705 ft | 477 kts | 74° |
| 2026-05-09 15:26 | 40.65021 | -71.79070 | 26000 ft | 479 kts | 75° |
| 2026-05-09 15:26 | 40.65919 | -71.74894 | 26286 ft | 481 kts | 75° |
| 2026-05-09 15:27 | 40.66830 | -71.70646 | 26567 ft | 483 kts | 75° |
| 2026-05-09 15:27 | 40.67755 | -71.66327 | 26846 ft | 485 kts | 75° |
| 2026-05-09 15:27 | 40.68671 | -71.62038 | 27107 ft | 487 kts | 75° |
| 2026-05-09 15:27 | 40.69578 | -71.57788 | 27356 ft | 489 kts | 75° |
| 2026-05-09 15:28 | 40.70497 | -71.53463 | 27617 ft | 491 kts | 75° |
| 2026-05-09 15:28 | 40.71420 | -71.49115 | 27862 ft | 493 kts | 75° |
| 2026-05-09 15:28 | 40.72343 | -71.44763 | 28101 ft | 494 kts | 75° |
| 2026-05-09 15:28 | 40.73270 | -71.40383 | 28331 ft | 496 kts | 75° |
| 2026-05-09 15:29 | 40.74197 | -71.35993 | 28554 ft | 498 kts | 75° |
| 2026-05-09 15:29 | 40.75124 | -71.31591 | 28765 ft | 499 kts | 75° |
| 2026-05-09 15:29 | 40.76053 | -71.27174 | 29063 ft | 499 kts | 75° |
| 2026-05-09 15:29 | 40.76977 | -71.22769 | 29376 ft | 498 kts | 75° |
| 2026-05-09 15:30 | 40.77899 | -71.18367 | 29672 ft | 497 kts | 75° |
| 2026-05-09 15:30 | 40.78817 | -71.13972 | 29944 ft | 497 kts | 75° |
| 2026-05-09 15:30 | 40.79732 | -71.09580 | 30224 ft | 496 kts | 75° |
| 2026-05-09 15:30 | 40.80647 | -71.05181 | 30493 ft | 496 kts | 75° |
| 2026-05-09 15:31 | 40.81558 | -71.00793 | 30749 ft | 495 kts | 75° |
| 2026-05-09 15:31 | 40.82466 | -70.96408 | 30990 ft | 495 kts | 75° |
| 2026-05-09 15:31 | 40.83373 | -70.92020 | 31226 ft | 494 kts | 75° |
| 2026-05-09 15:31 | 40.84276 | -70.87643 | 31456 ft | 494 kts | 75° |
| 2026-05-09 15:32 | 40.85177 | -70.83264 | 31659 ft | 493 kts | 75° |
| 2026-05-09 15:32 | 40.86075 | -70.78894 | 31882 ft | 493 kts | 75° |
| 2026-05-09 15:32 | 40.86959 | -70.74579 | 32080 ft | 493 kts | 75° |
| 2026-05-09 15:32 | 40.87853 | -70.70210 | 32276 ft | 492 kts | 75° |
| 2026-05-09 15:33 | 40.88743 | -70.65853 | 32463 ft | 492 kts | 75° |
| 2026-05-09 15:33 | 40.89631 | -70.61491 | 32650 ft | 491 kts | 75° |
| 2026-05-09 15:33 | 40.90518 | -70.57126 | 32822 ft | 491 kts | 75° |